Terminal Aerodrome Forecast
Issued by NWS

Home | Current Version | Previous Version | Text Only | Print | Product List | Glossary On
Versions: 1 2 3 4 5 6 7 8 9 10 11 12 13 14 15 16 17 18 19 20
000
FTUS43 KDLH 300300 AAB
TAFBRD
TAF AMD
KBRD 300301Z 3003/3024 00000KT P6SM SCT022 BKN120
     FM300500 VRB03KT P6SM SCT040 OVC060
     FM300900 18002KT P6SM VCSH SCT040 BKN060
     FM301600 34006KT P6SM BKN040
     FM302000 34013G23KT P6SM SCT040=

USA.gov is the U.S. government's official web portal to all federal, state and local government web resources and services.